createdAt,value
2018-12-20T00:01:40.588Z,19.27
2018-12-20T00:07:17.826Z,18.97
2018-12-20T00:09:53.930Z,17.40
2018-12-20T00:12:26.727Z,19.57
2018-12-20T00:14:59.424Z,18.97
2018-12-20T00:17:35.869Z,18.50
2018-12-20T00:20:21.523Z,18.07
2018-12-20T00:22:56.145Z,16.50
2018-12-20T00:25:28.472Z,16.30
2018-12-20T00:28:00.454Z,19.70
2018-12-20T00:30:32.385Z,16.07
2018-12-20T00:36:11.809Z,13.53
2018-12-20T00:38:44.512Z,14.30
2018-12-20T00:41:17.112Z,16.27
2018-12-20T00:46:57.900Z,14.33
2018-12-20T00:49:30.499Z,15.80
2018-12-20T00:52:03.347Z,12.40
2018-12-20T00:54:46.670Z,14.50
2018-12-20T00:57:21.016Z,15.37
2018-12-20T00:59:53.409Z,15.03
2018-12-20T01:02:25.399Z,12.17
2018-12-20T01:04:58.227Z,12.30
2018-12-20T01:07:30.867Z,8.93
2018-12-20T01:10:02.285Z,10.40
2018-12-20T01:12:34.573Z,10.60
2018-12-20T01:15:07.550Z,12.17
2018-12-20T01:17:40.236Z,10.27
2018-12-20T01:23:23.331Z,12.27
2018-12-20T01:25:56.124Z,13.80
2018-12-20T01:28:29.144Z,13.60
2018-12-20T01:31:02.212Z,14.50
2018-12-20T01:33:34.878Z,13.73
2018-12-20T01:36:07.518Z,12.90
2018-12-20T01:38:40.043Z,12.00
2018-12-20T01:41:12.909Z,12.30
2018-12-20T01:43:45.042Z,12.93
2018-12-20T01:46:17.837Z,13.33
2018-12-20T01:48:50.289Z,11.77
2018-12-20T01:51:23.084Z,13.90
2018-12-20T01:53:55.928Z,13.93
2018-12-20T01:56:28.035Z,11.67
2018-12-20T01:59:00.722Z,9.97
2018-12-20T02:01:33.679Z,11.10
2018-12-20T02:04:08.041Z,13.30
2018-12-20T02:06:40.266Z,11.63
2018-12-20T02:09:13.163Z,10.67
2018-12-20T02:11:45.038Z,10.00
2018-12-20T02:14:17.836Z,10.47
2018-12-20T02:16:50.632Z,12.20
2018-12-20T02:19:23.513Z,12.33
2018-12-20T02:21:56.333Z,12.27
2018-12-20T02:32:04.642Z,12.73
2018-12-20T02:37:21.583Z,12.87
2018-12-20T02:39:54.103Z,13.13
2018-12-20T02:42:27.230Z,13.13
2018-12-20T02:44:59.706Z,15.30
2018-12-20T02:47:31.732Z,14.20
2018-12-20T02:50:05.036Z,13.10
2018-12-20T02:52:37.609Z,13.13
2018-12-20T02:55:10.348Z,14.40
2018-12-20T02:57:42.991Z,16.13
2018-12-20T03:00:15.863Z,15.20
2018-12-20T03:02:48.736Z,15.43
2018-12-20T03:05:21.645Z,13.33
2018-12-20T03:07:54.519Z,17.00
2018-12-20T03:10:27.028Z,15.97
2018-12-20T03:13:00.243Z,14.00
2018-12-20T03:18:43.368Z,17.40
2018-12-20T03:21:16.253Z,15.97
2018-12-20T03:23:48.996Z,17.63
2018-12-20T03:26:22.026Z,17.77
2018-12-20T03:28:52.552Z,17.07
2018-12-20T03:31:25.353Z,18.00
2018-12-20T03:33:58.292Z,21.77
2018-12-20T03:36:30.811Z,20.77
2018-12-20T03:39:04.752Z,21.30
2018-12-20T03:41:37.475Z,21.17
2018-12-20T03:44:09.486Z,20.50
2018-12-20T03:46:42.215Z,20.17
2018-12-20T03:49:14.975Z,19.73
2018-12-20T03:51:47.568Z,22.23
2018-12-20T03:54:20.521Z,23.73
2018-12-20T03:56:53.637Z,22.00
2018-12-20T03:59:25.921Z,22.10
2018-12-20T04:01:58.595Z,23.20
2018-12-20T04:04:31.936Z,23.37
2018-12-20T04:07:04.409Z,17.80
2018-12-20T04:09:37.258Z,20.07
2018-12-20T04:12:10.028Z,15.77
2018-12-20T04:14:43.101Z,15.80
2018-12-20T04:17:15.191Z,18.13
2018-12-20T04:19:47.748Z,16.63
2018-12-20T04:22:20.557Z,17.30
2018-12-20T04:24:53.343Z,16.90
2018-12-20T04:27:26.066Z,16.30
2018-12-20T04:29:59.109Z,14.13
2018-12-20T04:32:31.756Z,15.07
2018-12-20T04:35:05.527Z,12.90
2018-12-20T04:37:37.967Z,13.83
2018-12-20T04:40:08.758Z,16.93
2018-12-20T04:42:41.577Z,14.93
2018-12-20T04:45:14.701Z,12.90
2018-12-20T04:47:47.186Z,14.53
2018-12-20T04:50:19.021Z,17.17
2018-12-20T04:52:51.767Z,18.27
2018-12-20T04:55:23.730Z,16.13
2018-12-20T04:57:56.288Z,15.97
2018-12-20T05:00:28.828Z,15.37
2018-12-20T05:03:00.812Z,16.07
2018-12-20T05:05:34.002Z,15.57
2018-12-20T05:08:06.474Z,15.73
2018-12-20T05:10:39.245Z,19.30
2018-12-20T05:13:12.096Z,17.17
2018-12-20T05:15:43.280Z,15.83
2018-12-20T05:18:16.112Z,16.70
2018-12-20T05:20:48.348Z,15.60
2018-12-20T05:23:21.074Z,14.90
2018-12-20T05:25:55.855Z,17.63
2018-12-20T05:28:28.109Z,14.83
2018-12-20T05:31:00.071Z,15.87
2018-12-20T05:33:32.935Z,17.87
2018-12-20T05:36:05.824Z,16.50
2018-12-20T05:38:37.830Z,14.80
2018-12-20T05:41:10.699Z,13.80
2018-12-20T05:43:41.354Z,14.77
2018-12-20T05:46:14.069Z,16.03
2018-12-20T05:48:44.689Z,15.80
2018-12-20T05:51:19.853Z,17.87
2018-12-20T05:53:52.497Z,15.73
2018-12-20T05:56:23.473Z,15.63
2018-12-20T05:58:55.910Z,13.43
2018-12-20T06:01:28.648Z,16.60
2018-12-20T06:04:01.306Z,13.27
2018-12-20T06:06:34.198Z,14.87
2018-12-20T06:15:15.065Z,13.20
2018-12-20T06:17:47.057Z,12.50
2018-12-20T06:20:19.717Z,13.63
2018-12-20T06:22:53.114Z,14.13
2018-12-20T06:25:25.860Z,13.73
2018-12-20T06:27:58.721Z,15.63
2018-12-20T06:30:30.618Z,13.83
2018-12-20T06:33:03.453Z,13.80
2018-12-20T06:35:36.103Z,14.90
2018-12-20T06:38:08.894Z,16.10
2018-12-20T06:40:40.788Z,16.83
2018-12-20T06:43:13.534Z,16.70
2018-12-20T06:45:45.801Z,17.63
2018-12-20T06:48:17.654Z,17.07
2018-12-20T06:50:49.633Z,15.87
2018-12-20T06:53:22.288Z,15.90
2018-12-20T06:55:54.601Z,16.30
2018-12-20T06:58:27.394Z,14.37
2018-12-20T07:01:00.129Z,18.57
2018-12-20T07:03:35.189Z,17.47
2018-12-20T07:06:07.677Z,17.17
2018-12-20T07:08:40.326Z,21.30
2018-12-20T07:11:13.118Z,15.67
2018-12-20T07:13:45.134Z,21.10
2018-12-20T07:16:15.869Z,19.13
2018-12-20T07:18:48.804Z,15.30
2018-12-20T07:21:21.398Z,15.30
2018-12-20T07:23:54.139Z,16.17
2018-12-20T07:26:24.894Z,19.83
2018-12-20T07:28:58.244Z,15.93
2018-12-20T07:31:30.796Z,16.07
2018-12-20T07:34:02.825Z,18.70
2018-12-20T07:36:35.594Z,15.90
2018-12-20T07:39:08.839Z,17.73
2018-12-20T07:41:41.375Z,17.20
2018-12-20T07:44:15.469Z,14.73
2018-12-20T07:46:48.043Z,14.10
2018-12-20T07:49:20.114Z,12.83
2018-12-20T07:51:52.809Z,12.97
2018-12-20T07:54:24.810Z,14.90
2018-12-20T07:56:57.381Z,13.37
2018-12-20T07:59:30.107Z,15.43
2018-12-20T08:02:09.000Z,16.37
2018-12-20T08:04:41.764Z,12.77
2018-12-20T08:07:14.469Z,14.10
2018-12-20T08:09:46.348Z,11.77
2018-12-20T08:12:19.116Z,12.43
2018-12-20T08:14:51.029Z,15.63
2018-12-20T08:17:23.664Z,16.37
2018-12-20T08:19:57.344Z,13.17
2018-12-20T08:22:29.268Z,10.73
2018-12-20T08:25:02.112Z,11.90
2018-12-20T08:27:34.589Z,10.73
2018-12-20T08:30:08.164Z,14.43
2018-12-20T08:32:42.622Z,13.23
2018-12-20T08:35:14.947Z,14.20
2018-12-20T08:37:47.637Z,9.83
2018-12-20T08:40:19.649Z,12.57
2018-12-20T08:42:54.790Z,11.50
2018-12-20T08:45:27.162Z,10.83
2018-12-20T08:47:59.865Z,10.90
2018-12-20T08:50:32.517Z,9.43
2018-12-20T08:53:07.430Z,11.43
2018-12-20T08:55:42.197Z,11.10
2018-12-20T08:58:14.855Z,12.53
2018-12-20T09:00:47.535Z,10.93
2018-12-20T09:03:20.257Z,12.83
2018-12-20T09:05:56.792Z,12.90
2018-12-20T09:08:29.653Z,10.40
2018-12-20T09:11:04.079Z,11.73
2018-12-20T09:13:38.989Z,12.00
2018-12-20T09:16:11.220Z,11.17
2018-12-20T09:18:42.024Z,11.23
2018-12-20T09:21:14.198Z,11.53
2018-12-20T09:23:47.052Z,10.00
2018-12-20T09:26:19.529Z,12.50
2018-12-20T09:28:53.284Z,11.70
2018-12-20T09:34:32.077Z,9.87
2018-12-20T09:37:04.136Z,11.13
2018-12-20T09:39:40.430Z,11.10
2018-12-20T09:42:12.515Z,11.50
2018-12-20T09:44:46.785Z,10.67
2018-12-20T09:47:24.488Z,9.67
2018-12-20T09:49:54.802Z,12.37
2018-12-20T09:52:26.709Z,11.47
2018-12-20T09:54:57.212Z,11.60
2018-12-20T09:57:29.822Z,9.57
2018-12-20T10:00:01.708Z,13.03
2018-12-20T10:02:34.425Z,9.43
2018-12-20T10:15:08.607Z,10.90
2018-12-20T10:17:43.274Z,8.97
2018-12-20T10:20:15.855Z,15.60
2018-12-20T10:22:48.530Z,15.10
2018-12-20T10:25:20.512Z,13.07
2018-12-20T10:27:52.411Z,15.77
2018-12-20T10:30:24.240Z,17.23
2018-12-20T10:32:57.032Z,16.33
2018-12-20T10:35:29.972Z,21.27
2018-12-20T10:38:02.787Z,19.20
2018-12-20T10:40:35.460Z,14.83
2018-12-20T10:43:08.173Z,13.10
2018-12-20T10:45:38.878Z,12.00
2018-12-20T10:48:11.687Z,15.63
2018-12-20T10:50:44.470Z,11.30
2018-12-20T10:53:15.202Z,9.67
2018-12-20T10:55:48.114Z,11.43
2018-12-20T10:58:21.510Z,14.57
2018-12-20T11:01:01.310Z,16.23
2018-12-20T11:03:36.724Z,20.30
2018-12-20T11:06:11.407Z,26.20
2018-12-20T11:08:49.560Z,21.17
2018-12-20T11:11:21.870Z,16.30
2018-12-20T11:13:56.862Z,13.63
2018-12-20T11:16:29.521Z,16.60
2018-12-20T11:19:01.531Z,16.53
2018-12-20T11:21:34.209Z,17.27
2018-12-20T11:24:06.127Z,14.60
2018-12-20T11:26:38.817Z,14.43
2018-12-20T11:29:10.815Z,18.87
2018-12-20T11:31:42.745Z,18.83
2018-12-20T11:34:14.682Z,14.27
2018-12-20T11:36:47.512Z,16.17
2018-12-20T11:39:19.941Z,14.87
2018-12-20T11:41:52.613Z,14.00
2018-12-20T11:44:25.547Z,14.83
2018-12-20T11:46:58.307Z,14.03
2018-12-20T11:49:31.081Z,9.63
2018-12-20T11:52:03.759Z,9.80
2018-12-20T11:54:36.545Z,10.20
2018-12-20T11:57:09.136Z,11.70
2018-12-20T11:59:42.106Z,11.10
2018-12-20T12:02:14.573Z,9.13
2018-12-20T12:04:47.200Z,10.60
2018-12-20T12:07:19.940Z,10.60
2018-12-20T12:09:52.603Z,10.13
2018-12-20T12:12:25.273Z,8.90
2018-12-20T12:14:55.953Z,11.30
2018-12-20T12:17:28.799Z,9.23
2018-12-20T12:20:01.528Z,11.23
2018-12-20T12:22:33.420Z,11.80
2018-12-20T12:25:08.412Z,10.03
2018-12-20T12:27:41.126Z,10.13
2018-12-20T12:30:11.912Z,11.43
2018-12-20T12:32:44.681Z,10.03
2018-12-20T12:35:17.457Z,10.07
2018-12-20T12:37:50.336Z,8.20
2018-12-20T12:40:23.044Z,11.17
2018-12-20T12:42:55.920Z,11.07
2018-12-20T12:45:28.705Z,13.30
2018-12-20T12:48:03.707Z,13.87
2018-12-20T12:50:41.105Z,13.70
2018-12-20T12:53:13.239Z,14.27
2018-12-20T12:55:45.932Z,12.10
2018-12-20T12:58:18.877Z,12.87
2018-12-20T13:00:51.289Z,10.37
2018-12-20T13:03:22.910Z,9.33
2018-12-20T13:05:54.904Z,8.07
2018-12-20T13:08:26.910Z,9.80
2018-12-20T13:10:59.587Z,10.90
2018-12-20T13:13:32.419Z,15.33
2018-12-20T13:16:05.092Z,9.90
2018-12-20T13:18:42.885Z,10.90
2018-12-20T13:21:28.008Z,12.63
2018-12-20T13:24:00.675Z,9.90
2018-12-20T13:26:37.250Z,9.90
2018-12-20T13:29:10.302Z,10.73
2018-12-20T13:31:45.042Z,14.37
2018-12-20T13:34:17.745Z,15.83
2018-12-20T13:39:58.051Z,12.10
2018-12-20T13:42:30.651Z,55.77
2018-12-20T13:45:03.835Z,15.63
2018-12-20T13:47:38.575Z,19.33
2018-12-20T13:50:11.138Z,20.90
2018-12-20T13:52:44.232Z,17.40
2018-12-20T13:55:17.119Z,22.30
2018-12-20T13:57:49.718Z,17.93
2018-12-20T14:00:22.345Z,18.03
2018-12-20T14:02:55.103Z,19.33
2018-12-20T14:08:37.188Z,47.50
2018-12-20T14:11:09.370Z,22.83
2018-12-20T14:13:41.942Z,81.77
2018-12-20T14:16:14.780Z,91.10
2018-12-20T14:18:47.632Z,43.47
2018-12-20T14:21:20.642Z,78.53
2018-12-20T14:23:51.522Z,34.17
2018-12-20T14:26:22.177Z,22.67
2018-12-20T14:28:55.215Z,62.27
2018-12-20T14:34:37.077Z,80.73
2018-12-20T14:37:09.394Z,18.00
2018-12-20T14:39:39.937Z,16.80
2018-12-20T14:42:12.527Z,14.20
2018-12-20T14:44:45.205Z,15.70
2018-12-20T14:47:17.249Z,40.97
2018-12-20T14:49:55.703Z,124.10
2018-12-20T14:52:27.920Z,125.63
2018-12-20T14:55:00.922Z,164.20
2018-12-20T14:57:33.417Z,233.47
2018-12-20T15:00:08.537Z,53.30
2018-12-20T15:02:41.012Z,42.37
2018-12-20T15:05:13.594Z,19.10
2018-12-20T15:07:46.514Z,16.90
2018-12-20T15:10:19.203Z,16.43
2018-12-20T15:12:51.230Z,16.00
2018-12-20T15:15:24.044Z,14.73
2018-12-20T15:17:56.938Z,16.10
2018-12-20T15:20:28.895Z,16.03
2018-12-20T15:23:02.914Z,16.40
2018-12-20T15:25:35.679Z,22.13
2018-12-20T15:31:15.233Z,29.77
2018-12-20T15:33:48.037Z,30.63
2018-12-20T15:36:20.806Z,18.70
2018-12-20T15:38:53.279Z,18.37
2018-12-20T15:41:25.153Z,19.90
2018-12-20T15:43:58.155Z,18.30
2018-12-20T15:46:30.807Z,32.10
2018-12-20T15:49:03.865Z,29.77
2018-12-20T15:51:36.854Z,19.00
2018-12-20T15:54:09.838Z,25.40
2018-12-20T15:56:41.774Z,38.23
2018-12-20T15:59:13.627Z,30.33
2018-12-20T16:01:46.379Z,31.80
2018-12-20T16:04:19.162Z,29.20
2018-12-20T16:06:51.992Z,28.30
2018-12-20T16:09:24.507Z,34.07
2018-12-20T16:11:56.367Z,46.50
2018-12-20T16:14:29.206Z,56.97
2018-12-20T16:17:01.864Z,25.90
2018-12-20T16:19:34.584Z,42.60
2018-12-20T16:22:07.540Z,492.43
2018-12-20T16:24:40.098Z,23.03
2018-12-20T16:27:12.871Z,27.60
2018-12-20T16:29:45.708Z,23.20
2018-12-20T16:32:18.410Z,24.30
2018-12-20T16:34:51.367Z,24.00
2018-12-20T16:37:24.243Z,22.80
2018-12-20T16:39:59.407Z,25.17
2018-12-20T16:42:31.659Z,25.80
2018-12-20T16:45:06.001Z,52.20
2018-12-20T16:47:39.068Z,55.93
2018-12-20T16:50:11.201Z,22.77
2018-12-20T16:52:43.803Z,39.37
2018-12-20T16:55:16.608Z,38.20
2018-12-20T16:57:49.211Z,22.00
2018-12-20T17:00:22.116Z,30.07
2018-12-20T17:02:54.735Z,27.57
2018-12-20T17:05:27.611Z,30.03
2018-12-20T17:08:00.398Z,29.97
2018-12-20T17:10:33.264Z,30.83
2018-12-20T17:13:05.907Z,36.53
2018-12-20T17:15:38.716Z,31.30
2018-12-20T17:18:11.421Z,25.63
2018-12-20T17:20:44.424Z,25.93
2018-12-20T17:23:16.889Z,40.10
2018-12-20T17:25:49.841Z,38.30
2018-12-20T17:28:22.597Z,45.93
2018-12-20T17:30:55.391Z,40.90
2018-12-20T17:33:28.173Z,26.93
2018-12-20T17:36:01.046Z,31.03
2018-12-20T17:38:33.846Z,27.13
2018-12-20T17:41:06.638Z,27.83
2018-12-20T17:43:39.502Z,32.30
2018-12-20T17:46:13.005Z,51.13
2018-12-20T17:48:46.257Z,41.17
2018-12-20T17:51:16.797Z,42.63
2018-12-20T17:53:49.693Z,68.20
2018-12-20T17:56:20.578Z,90.87
2018-12-20T17:58:53.138Z,297.23
2018-12-20T18:01:25.794Z,275.23
2018-12-20T18:03:58.695Z,62.23
2018-12-20T18:06:31.676Z,41.63
2018-12-20T18:09:07.711Z,41.23
2018-12-20T18:11:40.022Z,40.40
2018-12-20T18:14:12.638Z,42.13
2018-12-20T18:16:45.377Z,46.63
2018-12-20T18:19:18.917Z,58.63
2018-12-20T18:21:52.451Z,132.03
2018-12-20T18:24:24.805Z,58.93
2018-12-20T18:26:58.804Z,138.50
2018-12-20T18:29:31.342Z,84.33
2018-12-20T18:32:03.754Z,83.00
2018-12-20T18:34:36.683Z,79.60
2018-12-20T18:37:10.073Z,140.57
2018-12-20T18:39:42.263Z,179.00
2018-12-20T18:45:22.915Z,443.30
2018-12-20T18:47:55.749Z,211.57
2018-12-20T18:50:28.971Z,137.27
2018-12-20T18:53:01.366Z,230.93
2018-12-20T18:55:32.612Z,79.93
2018-12-20T18:58:05.566Z,133.03
2018-12-20T19:00:38.129Z,131.70
2018-12-20T19:03:08.664Z,80.77
2018-12-20T19:05:44.568Z,63.03
2018-12-20T19:08:17.461Z,194.40
2018-12-20T19:10:49.997Z,638.83
2018-12-20T19:13:22.996Z,328.27
2018-12-20T19:15:54.019Z,255.40
2018-12-20T19:18:26.636Z,565.50
2018-12-20T19:21:00.033Z,471.50
2018-12-20T19:23:32.476Z,488.70
2018-12-20T19:26:05.199Z,463.20
2018-12-20T19:28:38.186Z,350.33
2018-12-20T19:31:12.001Z,549.60
2018-12-20T19:33:44.869Z,477.60
2018-12-20T19:39:27.409Z,222.57
2018-12-20T19:42:08.407Z,677.27
2018-12-20T19:44:41.339Z,154.53
2018-12-20T19:47:17.773Z,198.63
2018-12-20T19:49:49.926Z,141.10
2018-12-20T19:52:22.539Z,132.90
2018-12-20T19:57:26.673Z,378.00
2018-12-20T19:59:59.447Z,408.27
2018-12-20T20:02:32.314Z,263.20
2018-12-20T20:05:05.200Z,210.73
2018-12-20T20:10:44.189Z,39.80
2018-12-20T20:13:31.242Z,427.57
2018-12-20T20:16:03.982Z,611.87
2018-12-20T20:18:36.740Z,372.70
2018-12-20T20:21:09.907Z,570.37
2018-12-20T20:23:40.447Z,480.87
2018-12-20T20:26:13.382Z,441.20
2018-12-20T20:31:46.698Z,254.93
2018-12-20T20:34:19.395Z,321.53
2018-12-20T20:36:52.355Z,263.57
2018-12-20T20:39:26.392Z,334.97
2018-12-20T20:41:59.317Z,340.30
2018-12-20T20:44:32.057Z,137.80
2018-12-20T20:47:04.857Z,168.43
2018-12-20T20:49:37.549Z,259.87
2018-12-20T20:52:10.297Z,474.90
2018-12-20T20:54:43.917Z,392.57
2018-12-20T20:57:15.950Z,199.60
2018-12-20T20:59:51.258Z,214.73
2018-12-20T21:02:23.510Z,206.57
2018-12-20T21:04:56.378Z,349.23
2018-12-20T21:07:28.660Z,249.10
2018-12-20T21:10:03.329Z,314.97
2018-12-20T21:12:36.270Z,235.37
2018-12-20T21:15:11.630Z,290.67
2018-12-20T21:17:43.894Z,297.77
2018-12-20T21:20:16.005Z,273.77
2018-12-20T21:22:48.934Z,125.40
2018-12-20T21:25:21.502Z,182.83
2018-12-20T21:27:54.130Z,313.57
2018-12-20T21:30:26.259Z,296.27
2018-12-20T21:32:59.101Z,242.40
2018-12-20T21:35:31.704Z,248.03
2018-12-20T21:38:05.156Z,328.93
2018-12-20T21:40:37.123Z,157.57
2018-12-20T21:43:10.972Z,68.50
2018-12-20T21:45:43.618Z,110.97
2018-12-20T21:48:16.400Z,137.87
2018-12-20T21:50:49.014Z,160.37
2018-12-20T21:53:21.908Z,228.80
2018-12-20T21:55:55.390Z,319.57
2018-12-20T21:58:28.415Z,168.00
2018-12-20T22:01:01.229Z,356.27
2018-12-20T22:03:34.818Z,673.83
2018-12-20T22:06:06.923Z,266.30
2018-12-20T22:08:39.175Z,196.77
2018-12-20T22:11:14.963Z,117.67
2018-12-20T22:13:47.847Z,126.37
2018-12-20T22:16:18.527Z,95.90
2018-12-20T22:18:50.475Z,257.13
2018-12-20T22:21:23.227Z,290.40
2018-12-20T22:23:56.002Z,224.10
2018-12-20T22:26:28.607Z,241.30
2018-12-20T22:29:01.530Z,289.60
2018-12-20T22:31:34.052Z,285.83
2018-12-20T22:34:06.951Z,153.90
2018-12-20T22:36:40.090Z,59.70
2018-12-20T22:39:12.451Z,245.67
2018-12-20T22:41:44.897Z,31.77
2018-12-20T22:44:17.704Z,44.73
2018-12-20T22:46:50.598Z,369.43
2018-12-20T22:49:23.289Z,120.10
2018-12-20T22:51:55.940Z,309.40
2018-12-20T22:54:28.068Z,198.30
2018-12-20T22:57:01.038Z,175.33
2018-12-20T22:59:33.862Z,218.23
2018-12-20T23:02:06.667Z,448.57
2018-12-20T23:04:39.364Z,237.80
2018-12-20T23:07:12.080Z,420.53
2018-12-20T23:09:44.664Z,183.43
2018-12-20T23:12:18.045Z,183.17
2018-12-20T23:14:50.477Z,293.57
2018-12-20T23:17:22.591Z,222.60
2018-12-20T23:19:55.337Z,141.77
2018-12-20T23:22:28.601Z,245.87
2018-12-20T23:25:03.229Z,114.13
2018-12-20T23:27:33.456Z,189.67
2018-12-20T23:30:06.702Z,271.57
2018-12-20T23:32:39.394Z,153.33
2018-12-20T23:35:12.091Z,312.50
2018-12-20T23:37:57.823Z,367.33
2018-12-20T23:40:28.751Z,322.57
2018-12-20T23:43:01.546Z,235.13
2018-12-20T23:45:34.482Z,251.80
2018-12-20T23:48:05.262Z,268.73
2018-12-20T23:50:35.983Z,49.00
2018-12-20T23:53:10.371Z,52.43
2018-12-20T23:55:41.030Z,176.73
2018-12-20T23:58:18.667Z,81.57
